Time;durP1;ratioP1;P1;durP2;ratioP2;P2;SDS_P1;SDS_P2;PMS_P1;PMS_P2;Temp;Humidity;BMP_temperature;BMP_pressure;BME280_temperature;BME280_humidity;BME280_pressure;Samples;Min_cycle;Max_cycle;Signal;HPM_P1;HPM_P2
2021/07/28 02:18:23;;;;;;;21.48;12.93;;;;;;;20.91;79.35;99368.36;1879024;74;23361;-67
2021/07/28 02:20:50;;;;;;;21.48;12.90;;;;;;;20.83;79.61;99371.48;1874471;76;21465;-69
2021/07/28 02:23:16;;;;;;;18.62;12.55;;;;;;;20.87;79.59;99369.43;1878805;76;21049;-69
2021/07/28 02:25:43;;;;;;;19.57;12.15;;;;;;;20.92;79.64;99369.98;1858889;76;21525;-69
2021/07/28 02:28:09;;;;;;;16.52;12.68;;;;;;;20.96;79.62;99362.60;1868051;76;21485;-69
2021/07/28 02:30:36;;;;;;;24.32;12.82;;;;;;;21.01;79.46;99365.11;1854005;76;21687;-69
2021/07/28 02:33:02;;;;;;;19.50;12.03;;;;;;;21.02;79.37;99370.88;1854777;76;21516;-70
2021/07/28 02:35:28;;;;;;;23.12;13.00;;;;;;;21.00;79.48;99357.98;1838433;76;21521;-69
2021/07/28 02:37:55;;;;;;;17.05;12.45;;;;;;;21.10;79.35;99365.83;1860273;76;21481;-70
2021/07/28 02:40:23;;;;;;;14.83;12.03;;;;;;;21.07;79.28;99362.34;1858761;76;21058;-70
2021/07/28 02:42:49;;;;;;;21.23;11.97;;;;;;;21.08;79.43;99361.77;1870870;76;21003;-70
2021/07/28 02:45:16;;;;;;;18.00;11.43;;;;;;;21.10;79.41;99366.37;1865266;76;20999;-70
2021/07/28 02:47:44;;;;;;;18.10;12.28;;;;;;;21.02;79.43;99361.20;1860545;76;21066;-70
2021/07/28 02:50:11;;;;;;;16.32;11.38;;;;;;;20.97;79.56;99364.80;1858768;76;21428;-70
2021/07/28 02:52:38;;;;;;;14.30;12.00;;;;;;;20.90;79.66;99364.58;1881449;76;21026;-70
2021/07/28 02:55:06;;;;;;;14.70;11.05;;;;;;;20.76;79.93;99368.50;1876184;76;21620;-70
2021/07/28 02:57:36;;;;;;;21.10;10.28;;;;;;;20.69;80.35;99392.39;1868968;76;20994;-69
2021/07/28 03:00:05;;;;;;;16.07;11.35;;;;;;;20.67;80.64;99404.36;1878353;76;21015;-70
2021/07/28 03:02:31;;;;;;;18.65;11.22;;;;;;;20.68;80.81;99404.02;1858620;76;20979;-70
2021/07/28 03:04:58;;;;;;;21.77;11.85;;;;;;;20.75;80.83;99395.14;1860344;76;21041;-70
2021/07/28 03:07:25;;;;;;;18.40;11.60;;;;;;;20.81;80.75;99402.85;1877017;76;21045;-69
2021/07/28 03:09:51;;;;;;;18.77;11.30;;;;;;;20.93;80.58;99395.70;1871438;76;21035;-68
2021/07/28 03:12:19;;;;;;;16.05;11.28;;;;;;;20.98;80.41;99399.02;1852078;76;21450;-68
2021/07/28 03:14:45;;;;;;;20.32;11.63;;;;;;;20.99;80.36;99401.21;1881600;76;21058;-69
2021/07/28 03:17:12;;;;;;;14.38;10.88;;;;;;;20.99;80.43;99424.16;1880990;75;21024;-69
2021/07/28 03:19:39;;;;;;;18.52;11.15;;;;;;;21.02;80.43;99430.95;1875986;76;21019;-69
2021/07/28 03:22:05;;;;;;;15.60;10.63;;;;;;;21.06;80.33;99418.84;1862343;76;21002;-69
2021/07/28 03:24:32;;;;;;;17.52;11.45;;;;;;;21.11;80.16;99421.98;1866599;76;21003;-70
2021/07/28 03:26:58;;;;;;;17.07;10.98;;;;;;;21.07;80.07;99423.23;1853394;76;21022;-70
2021/07/28 03:29:25;;;;;;;18.42;11.60;;;;;;;21.07;80.19;99420.46;1829739;76;21114;-70
2021/07/28 03:31:51;;;;;;;16.32;11.45;;;;;;;21.09;80.24;99423.67;1857829;76;21007;-71
2021/07/28 03:34:18;;;;;;;21.75;11.68;;;;;;;21.12;80.20;99444.33;1881804;76;21154;-70
2021/07/28 03:36:44;;;;;;;18.42;11.25;;;;;;;21.12;80.16;99449.87;1866996;76;21018;-71
2021/07/28 03:39:11;;;;;;;19.67;11.35;;;;;;;21.12;80.16;99440.19;1861222;77;21538;-71
2021/07/28 03:41:37;;;;;;;14.53;10.65;;;;;;;21.12;80.12;99437.41;1875267;76;21630;-70
2021/07/28 03:44:06;;;;;;;15.48;11.53;;;;;;;21.10;80.00;99428.09;1884643;76;21073;-69
2021/07/28 03:46:32;;;;;;;16.55;11.35;;;;;;;21.10;80.08;99427.25;1771558;79;20996;-69
2021/07/28 03:48:59;;;;;;;16.32;11.12;;;;;;;21.10;79.99;99423.94;1800120;78;20983;-69
2021/07/28 03:51:26;;;;;;;17.07;11.53;;;;;;;21.11;79.89;99419.22;1804682;78;21125;-69
2021/07/28 03:53:52;;;;;;;17.25;11.80;;;;;;;21.12;79.88;99415.27;1801291;80;21038;-70
2021/07/28 03:56:23;;;;;;;17.07;11.30;;;;;;;21.17;79.85;99413.09;1807983;78;21605;-69
2021/07/28 03:58:47;;;;;;;19.77;11.00;;;;;;;21.21;79.76;99409.05;1791776;78;21034;-69
2021/07/28 04:01:14;;;;;;;15.30;11.15;;;;;;;21.23;79.60;99409.48;1817127;78;21073;-69
2021/07/28 04:03:40;;;;;;;14.95;10.45;;;;;;;21.20;79.57;99406.84;1800769;78;21077;-69
2021/07/28 04:06:07;;;;;;;17.50;10.43;;;;;;;21.19;79.61;99406.61;1769669;79;21024;-69
2021/07/28 04:08:33;;;;;;;14.93;11.33;;;;;;;21.20;79.66;99413.77;1790036;78;21057;-69
2021/07/28 04:11:00;;;;;;;15.95;12.65;;;;;;;21.22;79.73;99414.81;1794827;78;21022;-68
2021/07/28 04:13:28;;;;;;;20.08;12.75;;;;;;;21.23;79.86;99412.25;1813715;78;21007;-69
2021/07/28 04:15:54;;;;;;;16.23;12.18;;;;;;;21.27;80.03;99407.06;1791577;79;21756;-69
2021/07/28 04:18:21;;;;;;;17.45;11.57;;;;;;;21.34;80.10;99403.69;1800185;78;21569;-69
2021/07/28 04:20:47;;;;;;;18.92;12.18;;;;;;;21.38;80.16;99402.41;1775405;78;21496;-69
2021/07/28 04:23:14;;;;;;;18.25;12.37;;;;;;;21.42;80.25;99397.21;1773529;78;21052;-70
2021/07/28 04:25:41;;;;;;;17.07;11.30;;;;;;;21.47;80.30;99403.09;1805443;79;21007;-69
2021/07/28 04:28:07;;;;;;;16.73;11.43;;;;;;;21.51;80.21;99413.66;1799192;78;21014;-69
2021/07/28 04:30:33;;;;;;;17.00;12.00;;;;;;;21.56;80.30;99415.63;1818227;78;21019;-69
2021/07/28 04:33:00;;;;;;;22.17;11.70;;;;;;;21.65;80.28;99414.87;1809891;79;21069;-70
2021/07/28 04:35:26;;;;;;;16.02;11.40;;;;;;;21.72;80.15;99422.58;1800952;78;21069;-70
2021/07/28 04:37:53;;;;;;;15.28;11.57;;;;;;;21.74;80.02;99410.01;1802662;78;21040;-70
2021/07/28 04:40:20;;;;;;;17.32;11.43;;;;;;;21.80;80.07;99414.70;1772710;79;21133;-70
2021/07/28 04:42:46;;;;;;;14.78;11.05;;;;;;;21.90;80.19;99416.98;1812776;79;20979;-69
2021/07/28 04:45:13;;;;;;;15.58;11.35;;;;;;;21.99;80.19;99410.72;1769810;81;21214;-69
2021/07/28 04:47:40;;;;;;;15.25;11.38;;;;;;;22.15;80.33;99412.91;1796530;78;21022;-70
2021/07/28 04:50:08;;;;;;;17.50;11.45;;;;;;;22.42;80.90;99409.86;1759479;80;21593;-70
2021/07/28 04:52:34;;;;;;;18.87;12.63;;;;;;;22.76;80.57;99416.08;1741582;80;21026;-70
2021/07/28 04:55:01;;;;;;;15.68;12.28;;;;;;;22.99;79.74;99412.64;1819019;78;21087;-68
2021/07/28 04:57:28;;;;;;;19.25;11.85;;;;;;;23.16;78.73;99417.20;1792926;79;21019;-68
2021/07/28 04:59:55;;;;;;;20.92;11.35;;;;;;;23.34;77.83;99410.65;1775999;80;21066;-68
2021/07/28 05:02:23;;;;;;;18.35;11.30;;;;;;;23.58;77.12;99404.83;1790769;78;21037;-68
2021/07/28 05:04:49;;;;;;;19.05;11.10;;;;;;;23.78;76.28;99407.81;1783513;79;21578;-69
2021/07/28 05:07:18;;;;;;;17.42;11.93;;;;;;;23.97;76.01;99409.77;1791854;79;21603;-68
2021/07/28 05:09:44;;;;;;;20.70;11.20;;;;;;;24.11;74.87;99407.25;1794148;80;21090;-69
2021/07/28 05:12:11;;;;;;;16.65;11.22;;;;;;;24.23;74.13;99404.91;1793991;78;21054;-68
2021/07/28 05:14:38;;;;;;;16.40;11.33;;;;;;;24.31;73.11;99405.81;1816319;78;21027;-71
2021/07/28 05:17:04;;;;;;;16.77;12.90;;;;;;;24.26;72.37;99407.76;1818566;78;21030;-70
2021/07/28 05:19:31;;;;;;;15.95;11.73;;;;;;;24.18;72.02;99402.43;1787645;78;21592;-69
2021/07/28 05:21:58;;;;;;;15.40;11.00;;;;;;;24.19;72.72;99401.27;1807782;78;21006;-67
2021/07/28 05:24:25;;;;;;;16.27;10.80;;;;;;;24.38;72.29;99398.41;1798596;78;21201;-68
2021/07/28 05:26:51;;;;;;;17.30;10.55;;;;;;;24.64;72.04;99400.42;1794578;78;20985;-68
2021/07/28 05:29:19;;;;;;;16.25;10.55;;;;;;;24.84;70.00;99396.97;1800108;78;21026;-68
2021/07/28 05:31:46;;;;;;;16.95;10.35;;;;;;;24.89;68.57;99397.47;1771924;79;21005;-69
2021/07/28 05:34:13;;;;;;;18.35;11.68;;;;;;;25.00;68.41;99397.63;1778223;79;21038;-69
2021/07/28 05:36:39;;;;;;;16.30;11.50;;;;;;;25.14;67.80;99397.25;1778886;79;20994;-69
2021/07/28 05:39:06;;;;;;;16.80;10.78;;;;;;;25.35;68.52;99391.16;1790071;80;21089;-68
2021/07/28 05:41:32;;;;;;;18.73;10.20;;;;;;;25.74;68.05;99395.25;1803287;79;20995;-68
2021/07/28 05:43:59;;;;;;;16.42;9.95;;;;;;;26.03;64.81;99388.59;1807147;79;21034;-69
2021/07/28 05:46:26;;;;;;;13.72;9.35;;;;;;;26.06;63.86;99383.05;1828996;78;21054;-68
2021/07/28 05:48:53;;;;;;;12.93;8.70;;;;;;;26.12;62.66;99380.70;1727962;80;21008;-69
2021/07/28 05:51:20;;;;;;;15.78;9.50;;;;;;;26.23;62.62;99378.25;1788191;79;21026;-69
2021/07/28 05:53:46;;;;;;;16.12;9.80;;;;;;;26.45;62.41;99379.83;1769569;79;20992;-69
2021/07/28 05:56:13;;;;;;;14.15;9.70;;;;;;;26.66;61.01;99374.42;1787208;79;21024;-69
2021/07/28 05:58:39;;;;;;;10.60;8.78;;;;;;;26.84;60.17;99376.77;1788587;80;21087;-69
2021/07/28 06:01:06;;;;;;;13.22;9.23;;;;;;;26.99;60.81;99374.28;1774252;79;21072;-69
2021/07/28 06:03:32;;;;;;;13.85;9.70;;;;;;;27.19;60.56;99378.97;1810706;78;21007;-70
2021/07/28 06:05:59;;;;;;;13.83;9.65;;;;;;;27.32;59.70;99379.42;1809733;79;21155;-69
2021/07/28 06:08:25;;;;;;;15.48;9.10;;;;;;;27.50;60.03;99370.55;1798312;78;21046;-69
2021/07/28 06:10:52;;;;;;;16.25;9.10;;;;;;;27.72;59.10;99370.03;1811921;78;21553;-69
2021/07/28 06:13:18;;;;;;;12.43;8.38;;;;;;;27.99;59.55;99376.28;1765774;79;21086;-68
2021/07/28 06:15:50;;;;;;;12.68;8.25;;;;;;;28.23;58.00;99373.38;1760594;81;21037;-68
2021/07/28 06:18:13;;;;;;;13.03;8.53;;;;;;;28.43;57.57;99374.58;1771933;79;21023;-70
2021/07/28 06:20:40;;;;;;;15.45;8.20;;;;;;;28.66;56.78;99368.58;1821153;78;20987;-71
2021/07/28 06:23:07;;;;;;;16.62;8.93;;;;;;;28.82;56.34;99366.17;1822122;78;21041;-70
2021/07/28 06:25:34;;;;;;;13.95;9.15;;;;;;;28.98;55.54;99369.33;1784701;79;21060;-69
2021/07/28 06:28:00;;;;;;;12.45;8.73;;;;;;;29.08;54.68;99371.33;1788552;80;21040;-69
2021/07/28 06:30:27;;;;;;;15.83;9.10;;;;;;;29.15;54.78;99372.72;1808233;79;21114;-72
2021/07/28 06:32:53;;;;;;;16.32;9.28;;;;;;;29.21;54.59;99376.48;1797558;79;21058;-69
2021/07/28 06:35:20;;;;;;;17.00;9.55;;;;;;;29.26;54.99;99370.47;1821912;78;21038;-69
2021/07/28 06:37:46;;;;;;;13.43;9.30;;;;;;;29.30;54.25;99369.27;1802443;79;21014;-68
2021/07/28 06:40:14;;;;;;;16.12;8.85;;;;;;;29.38;54.87;99361.63;1798197;78;21130;-69
2021/07/28 06:42:41;;;;;;;13.03;9.20;;;;;;;29.51;54.21;99365.61;1791259;78;21493;-69
2021/07/28 06:45:08;;;;;;;11.90;8.98;;;;;;;29.58;54.12;99357.93;1772507;81;21483;-70
2021/07/28 06:47:35;;;;;;;11.00;8.58;;;;;;;29.66;53.37;99358.70;1772665;81;21042;-71
2021/07/28 06:50:03;;;;;;;11.48;8.60;;;;;;;29.39;53.82;99361.84;1814817;78;21019;-68
2021/07/28 06:52:30;;;;;;;14.00;8.48;;;;;;;29.33;55.00;99360.67;1792464;79;21170;-70
2021/07/28 06:54:57;;;;;;;12.00;7.95;;;;;;;29.34;54.96;99368.66;1780542;80;21027;-69
2021/07/28 06:57:24;;;;;;;14.53;8.58;;;;;;;29.55;53.64;99360.75;1758745;81;21030;-70
2021/07/28 06:59:52;;;;;;;14.43;8.48;;;;;;;29.72;52.83;99360.48;1792555;79;21547;-69
2021/07/28 07:02:19;;;;;;;13.93;9.00;;;;;;;29.79;53.02;99361.25;1793032;79;20975;-70
2021/07/28 07:04:45;;;;;;;17.05;9.10;;;;;;;29.68;53.49;99361.11;1805296;79;21125;-70
2021/07/28 07:07:12;;;;;;;12.80;8.93;;;;;;;29.83;53.86;99376.03;1779512;79;20947;-69
2021/07/28 07:09:38;;;;;;;15.00;9.63;;;;;;;30.00;53.44;99374.38;1761981;79;21552;-70
2021/07/28 07:12:06;;;;;;;14.18;10.00;;;;;;;30.03;53.17;99369.34;1789289;79;20980;-69
2021/07/28 07:14:35;;;;;;;12.82;9.30;;;;;;;29.90;52.50;99371.81;1806364;79;21063;-69
2021/07/28 07:17:03;;;;;;;14.33;9.23;;;;;;;29.89;53.24;99369.44;1806596;79;21007;-71
2021/07/28 07:19:30;;;;;;;13.88;9.40;;;;;;;30.02;53.39;99376.16;1791055;79;21031;-70
2021/07/28 07:21:57;;;;;;;17.45;9.58;;;;;;;30.22;53.12;99376.44;1810008;79;21031;-70
2021/07/28 07:24:24;;;;;;;12.75;8.70;;;;;;;30.36;51.80;99374.93;1781696;78;21596;-70
2021/07/28 07:26:52;;;;;;;12.43;9.35;;;;;;;30.52;52.70;99378.83;1799302;78;21057;-71
2021/07/28 07:29:19;;;;;;;12.65;9.13;;;;;;;30.81;51.84;99376.56;1778007;79;21018;-70
2021/07/28 07:31:46;;;;;;;13.65;8.98;;;;;;;30.92;51.34;99384.28;1815251;78;21078;-70
2021/07/28 07:34:12;;;;;;;17.17;9.43;;;;;;;30.98;51.32;99383.24;1794103;78;21543;-70
2021/07/28 07:36:39;;;;;;;13.03;8.78;;;;;;;30.99;50.62;99388.46;1824618;78;21007;-71
2021/07/28 07:39:08;;;;;;;12.45;8.25;;;;;;;30.98;51.33;99386.86;1825136;78;21034;-70
2021/07/28 07:41:34;;;;;;;11.45;8.95;;;;;;;31.07;51.80;99386.38;1830616;78;20976;-69
2021/07/28 07:44:02;;;;;;;13.30;8.73;;;;;;;31.10;50.79;99391.16;1820553;79;21544;-69
2021/07/28 07:46:28;;;;;;;12.85;8.95;;;;;;;31.01;50.67;99390.23;1820813;79;21530;-70
2021/07/28 07:48:56;;;;;;;15.90;9.05;;;;;;;30.87;50.28;99393.16;1795009;79;21011;-72
2021/07/28 07:51:23;;;;;;;14.20;9.28;;;;;;;30.82;51.37;99390.78;1789168;79;21031;-72
2021/07/28 07:53:50;;;;;;;15.00;8.75;;;;;;;30.88;50.66;99386.33;1810514;78;21034;-72
2021/07/28 07:56:16;;;;;;;11.22;8.50;;;;;;;30.87;51.36;99384.72;1805523;79;21030;-72
2021/07/28 07:58:44;;;;;;;13.25;8.93;;;;;;;30.89;51.18;99382.91;1805141;79;21004;-72
2021/07/28 08:01:11;;;;;;;11.03;8.35;;;;;;;30.96;50.62;99387.06;1799334;79;21101;-73
2021/07/28 08:03:41;;;;;;;14.50;7.87;;;;;;;30.90;50.65;99395.12;1802756;79;21023;-72
2021/07/28 08:06:09;;;;;;;12.13;8.15;;;;;;;30.90;50.57;99395.12;1808491;79;21024;-73
2021/07/28 08:08:37;;;;;;;12.68;7.60;;;;;;;31.02;52.12;99389.63;1783009;79;21126;-71
2021/07/28 08:11:08;;;;;;;12.07;8.03;;;;;;;31.16;50.81;99389.48;1788572;80;21091;-71
2021/07/28 08:13:35;;;;;;;12.47;7.78;;;;;;;31.16;50.64;99383.86;1788533;80;21055;-71
2021/07/28 08:16:03;;;;;;;12.68;7.80;;;;;;;31.25;50.51;99388.36;1775648;79;21027;-71
2021/07/28 08:18:30;;;;;;;13.32;7.90;;;;;;;31.29;49.32;99391.93;1815103;77;21059;-73
2021/07/28 08:20:57;;;;;;;9.88;7.33;;;;;;;31.35;49.88;99389.48;1778102;79;21113;-72
2021/07/28 08:23:23;;;;;;;10.98;7.10;;;;;;;31.43;49.47;99393.17;1775076;79;21991;-71
2021/07/28 08:25:50;;;;;;;10.45;7.10;;;;;;;31.38;48.72;99390.03;1813757;78;20992;-71
2021/07/28 08:28:16;;;;;;;13.80;7.33;;;;;;;31.46;49.44;99384.52;1785165;79;21019;-70
2021/07/28 08:30:43;;;;;;;14.47;6.97;;;;;;;31.62;48.21;99382.53;1791486;79;21225;-72
2021/07/28 08:33:09;;;;;;;12.10;7.80;;;;;;;31.66;48.78;99380.47;1775260;80;21495;-71
2021/07/28 08:35:35;;;;;;;13.50;7.83;;;;;;;31.75;48.25;99383.55;1797838;79;21078;-70
2021/07/28 08:38:05;;;;;;;12.13;7.33;;;;;;;31.75;48.40;99382.14;1783833;80;21094;-73
2021/07/28 08:40:32;;;;;;;10.72;7.30;;;;;;;31.72;48.22;99379.58;1793560;79;21059;-70
2021/07/28 08:43:00;;;;;;;14.30;7.97;;;;;;;31.70;49.46;99382.03;1828943;78;20998;-71
2021/07/28 08:45:27;;;;;;;13.58;7.30;;;;;;;31.72;48.99;99384.41;1783557;79;21013;-69
2021/07/28 08:47:53;;;;;;;15.13;7.35;;;;;;;31.74;48.39;99384.80;1760801;80;21010;-72
2021/07/28 08:50:19;;;;;;;12.03;7.15;;;;;;;31.76;48.09;99388.77;1767026;79;21027;-74
2021/07/28 08:52:46;;;;;;;12.40;7.45;;;;;;;31.74;49.07;99388.41;1750128;81;21050;-73
2021/07/28 08:55:13;;;;;;;13.15;7.70;;;;;;;31.70;48.04;99384.84;1783976;79;21093;-73
2021/07/28 08:57:40;;;;;;;12.37;7.10;;;;;;;31.66;48.10;99384.09;1756740;82;21079;-74
2021/07/28 09:00:09;;;;;;;10.25;7.37;;;;;;;31.67;48.51;99384.28;1779301;79;21058;-69
2021/07/28 09:02:36;;;;;;;9.63;6.65;;;;;;;31.67;48.32;99384.89;1760609;81;21038;-72
2021/07/28 09:05:03;;;;;;;11.33;7.08;;;;;;;31.74;48.88;99386.20;1776053;80;21090;-73
2021/07/28 09:07:33;;;;;;;8.95;7.05;;;;;;;31.81;48.71;99391.73;1791685;80;20979;-72
2021/07/28 09:09:59;;;;;;;12.88;6.67;;;;;;;31.90;47.27;99384.36;1765332;79;21059;-73
2021/07/28 09:12:34;;;;;;;11.68;6.47;;;;;;;31.96;46.48;99384.66;1807644;79;20999;-74
2021/07/28 09:15:03;;;;;;;9.90;6.47;;;;;;;31.99;47.28;99377.58;1762741;80;21049;-74
2021/07/28 09:17:30;;;;;;;11.10;6.80;;;;;;;31.94;46.43;99376.66;1796796;78;21804;-74
2021/07/28 09:19:57;;;;;;;11.28;6.20;;;;;;;32.00;47.42;99376.97;1809458;79;21054;-74
2021/07/28 09:22:40;;;;;;;9.98;5.67;;;;;;;32.17;48.16;99372.34;1794023;78;21050;-74
2021/07/28 09:25:21;;;;;;;10.72;6.28;;;;;;;32.28;46.86;99371.55;1790739;78;21101;-74
2021/07/28 09:27:49;;;;;;;10.50;6.30;;;;;;;32.09;47.94;99371.66;1772384;81;21033;-74
2021/07/28 09:30:20;;;;;;;11.08;6.47;;;;;;;31.89;48.14;99377.73;1753251;79;21026;-74
2021/07/28 09:33:07;;;;;;;10.53;6.78;;;;;;;31.45;48.43;99380.11;1794983;79;21030;-73
2021/07/28 09:36:07;;;;;;;14.55;6.33;;;;;;;31.24;49.95;99367.70;1804444;78;21043;-74
2021/07/28 09:38:49;;;;;;;11.22;5.80;;;;;;;31.18;49.21;99368.76;1814464;78;21562;-75
2021/07/28 09:41:29;;;;;;;10.18;5.53;;;;;;;31.15;49.30;99371.61;1795493;79;21105;-74
2021/07/28 09:44:02;;;;;;;11.68;5.80;;;;;;;31.28;48.68;99360.84;1790879;78;21034;-74
2021/07/28 09:46:37;;;;;;;11.35;5.65;;;;;;;31.56;47.33;99359.10;1804669;78;21024;-75
2021/07/28 09:49:06;;;;;;;;;;;;;;;31.68;46.24;99352.70;1793534;80;21067;-75
2021/07/28 09:51:40;;;;;;;12.18;6.28;;;;;;;31.66;47.04;99352.34;1810835;78;20494;-75
2021/07/28 09:54:09;;;;;;;10.60;5.78;;;;;;;31.69;46.20;99343.84;1791246;79;21527;-74
2021/07/28 09:56:49;;;;;;;12.07;5.50;;;;;;;31.91;45.71;99347.95;1789797;79;21015;-72
2021/07/28 09:59:18;;;;;;;10.65;5.72;;;;;;;32.15;45.55;99348.02;1792843;79;21589;-74
2021/07/28 10:01:46;;;;;;;9.33;5.60;;;;;;;32.28;44.86;99345.59;1784652;78;20979;-72
2021/07/28 10:04:15;;;;;;;8.53;5.35;;;;;;;32.41;45.33;99348.62;1788377;79;21047;-73
2021/07/28 10:06:50;;;;;;;11.03;5.75;;;;;;;32.48;44.37;99340.05;1803933;79;21548;-71
2021/07/28 10:09:19;;;;;;;9.75;5.78;;;;;;;32.48;45.10;99339.44;1757192;80;21082;-71
2021/07/28 10:11:49;;;;;;;8.75;5.70;;;;;;;32.45;44.63;99332.45;1773352;79;20998;-72
2021/07/28 10:14:18;;;;;;;9.75;5.75;;;;;;;32.51;43.92;99340.59;1784043;80;21013;-73
2021/07/28 10:16:47;;;;;;;9.38;5.70;;;;;;;32.56;44.98;99337.27;1776393;81;21530;-73
2021/07/28 10:19:15;;;;;;;13.15;5.97;;;;;;;32.68;44.51;99331.66;1769710;79;21027;-73
2021/07/28 10:21:42;;;;;;;9.38;5.78;;;;;;;32.79;44.27;99333.06;1782002;79;21553;-75
2021/07/28 10:24:12;;;;;;;12.10;5.55;;;;;;;32.92;43.77;99329.79;1803293;79;21042;-73
2021/07/28 10:26:48;;;;;;;9.15;5.30;;;;;;;33.05;43.66;99331.37;1793087;80;20959;-74
2021/07/28 10:29:15;;;;;;;11.75;5.50;;;;;;;33.00;42.89;99325.61;1752489;80;21519;-75
2021/07/28 10:31:53;;;;;;;11.40;5.72;;;;;;;32.98;43.70;99330.10;1781420;79;21043;-75
2021/07/28 10:34:36;;;;;;;7.67;5.22;;;;;;;33.02;42.81;99333.02;1800767;78;21012;-75
2021/07/28 10:37:04;;;;;;;9.70;5.47;;;;;;;33.07;42.51;99326.08;1807314;78;21003;-74
2021/07/28 10:39:40;;;;;;;10.55;5.72;;;;;;;32.97;42.19;99329.30;1796145;79;21050;-75
2021/07/28 10:42:14;;;;;;;11.18;6.20;;;;;;;32.88;42.59;99331.88;1797529;79;21023;-73
2021/07/28 10:45:04;;;;;;;9.55;5.60;;;;;;;32.75;42.18;99321.06;1789855;79;21499;-74
2021/07/28 10:47:45;;;;;;;9.43;5.75;;;;;;;32.65;43.03;99322.66;1814918;78;21042;-75
2021/07/28 10:50:33;;;;;;;8.80;5.40;;;;;;;32.68;43.44;99320.39;1800607;79;21074;-74
2021/07/28 10:53:03;;;;;;;11.70;5.95;;;;;;;32.78;43.35;99313.14;1808759;78;21577;-75
2021/07/28 10:55:37;;;;;;;8.70;5.35;;;;;;;32.82;43.41;99310.27;1791154;80;21547;-75
2021/07/28 10:58:12;;;;;;;10.32;5.58;;;;;;;32.86;43.85;99307.56;1793631;78;20983;-76
2021/07/28 11:00:48;;;;;;;11.18;5.47;;;;;;;32.84;43.22;99315.64;1795546;78;21537;-74
2021/07/28 11:03:20;;;;;;;9.53;4.85;;;;;;;32.91;43.69;99300.00;1811172;78;20974;-75
2021/07/28 11:05:49;;;;;;;13.60;5.80;;;;;;;33.04;43.25;99302.98;1796542;78;21046;-74
2021/07/28 11:08:20;;;;;;;8.98;4.80;;;;;;;33.01;42.99;99303.86;1807643;78;21577;-74
2021/07/28 11:11:01;;;;;;;12.78;5.87;;;;;;;32.97;42.88;99308.77;1799815;78;21042;-73
2021/07/28 11:13:33;;;;;;;8.78;5.40;;;;;;;33.17;43.81;99302.54;1799623;78;21034;-74
2021/07/28 11:16:05;;;;;;;12.45;5.28;;;;;;;33.32;42.76;99308.69;1797491;78;21023;-74
2021/07/28 11:18:40;;;;;;;9.30;5.10;;;;;;;33.45;42.62;99306.17;1785494;79;21019;-75
2021/07/28 11:21:14;;;;;;;7.37;5.03;;;;;;;33.53;41.31;99306.81;1800533;79;21091;-74
2021/07/28 11:23:47;;;;;;;10.00;7.45;;;;;;;33.46;40.35;99301.33;1779131;79;21000;-75
2021/07/28 11:26:26;;;;;;;18.65;14.78;;;;;;;33.25;40.95;99304.59;1777805;79;21897;-75
2021/07/28 11:28:56;;;;;;;34.10;24.77;;;;;;;33.10;40.43;99299.03;1775711;80;21052;-74
2021/07/28 11:31:44;;;;;;;7.83;4.97;;;;;;;33.07;41.01;99294.27;1781905;79;21092;-74
2021/07/28 11:34:21;;;;;;;8.70;4.70;;;;;;;32.94;40.09;99299.77;1798571;79;21076;-75
2021/07/28 11:37:03;;;;;;;8.75;4.80;;;;;;;32.55;40.39;99290.01;1775906;79;21036;-74
2021/07/28 11:39:31;;;;;;;7.00;4.90;;;;;;;32.20;41.08;99294.05;1774745;80;21060;-74
2021/07/28 11:42:06;;;;;;;10.08;4.90;;;;;;;31.92;41.78;99289.02;1786314;79;21001;-75
2021/07/28 11:44:43;;;;;;;9.73;6.92;;;;;;;31.91;42.13;99288.85;1785060;80;21045;-74
2021/07/28 11:47:12;;;;;;;10.80;7.08;;;;;;;31.84;42.43;99293.79;1810978;77;21756;-75
2021/07/28 11:49:39;;;;;;;10.20;6.22;;;;;;;31.71;42.16;99283.71;1774638;79;21080;-73
2021/07/28 11:52:06;;;;;;;9.03;5.55;;;;;;;31.64;43.16;99292.26;1803277;79;21017;-75
2021/07/28 11:54:33;;;;;;;8.05;5.30;;;;;;;31.54;42.85;99288.38;1787989;79;21034;-74
2021/07/28 11:56:59;;;;;;;9.35;5.25;;;;;;;31.34;43.86;99285.23;1778535;79;20998;-74
2021/07/28 11:59:29;;;;;;;6.95;5.03;;;;;;;31.20;45.98;99282.00;1790722;79;21217;-73
2021/07/28 12:01:57;;;;;;;8.78;5.33;;;;;;;31.29;45.27;99284.28;1751195;75;21077;-73
2021/07/28 12:04:26;;;;;;;13.55;9.95;;;;;;;31.54;44.93;99278.54;1769495;80;20959;-74
2021/07/28 12:06:53;;;;;;;19.42;17.20;;;;;;;31.87;43.13;99281.07;1766315;80;21037;-73
2021/07/28 12:09:25;;;;;;;11.73;9.78;;;;;;;32.14;43.14;99283.07;1709492;83;20999;-74
2021/07/28 12:12:04;;;;;;;12.30;8.38;;;;;;;32.38;43.45;99278.42;1726528;82;21045;-73
2021/07/28 12:14:38;;;;;;;10.85;8.58;;;;;;;32.64;43.24;99278.19;1726105;83;20996;-73
2021/07/28 12:17:20;;;;;;;14.30;7.70;;;;;;;32.85;42.08;99276.37;1726547;83;21644;-75
2021/07/28 12:20:12;;;;;;;9.43;6.58;;;;;;;32.93;40.62;99277.03;1727486;83;20993;-76
2021/07/28 12:22:41;;;;;;;8.60;6.40;;;;;;;32.98;40.30;99270.89;1709597;83;21079;-73
2021/07/28 12:25:18;;;;;;;8.75;7.05;;;;;;;33.00;40.59;99273.45;1732893;82;21047;-75
2021/07/28 12:28:02;;;;;;;9.40;6.25;;;;;;;33.03;41.23;99273.99;1726024;83;21053;-75
2021/07/28 12:30:36;;;;;;;6.50;5.08;;;;;;;33.16;40.78;99281.20;1722402;83;21015;-75
2021/07/28 12:33:11;;;;;;;12.35;10.10;;;;;;;33.32;40.09;99274.83;1723067;83;21102;-74
2021/07/28 12:35:46;;;;;;;7.55;5.42;;;;;;;33.42;41.38;99269.56;1712083;81;21020;-75
2021/07/28 12:38:24;;;;;;;5.45;4.58;;;;;;;33.50;40.99;99266.16;1705597;83;21582;-74
2021/07/28 12:40:57;;;;;;;6.55;5.15;;;;;;;33.37;38.95;99263.05;1703717;84;21087;-74
2021/07/28 12:43:26;;;;;;;7.42;5.37;;;;;;;33.19;40.63;99260.61;1706168;83;21604;-73
2021/07/28 12:46:00;;;;;;;6.03;4.83;;;;;;;33.13;40.75;99258.71;1704247;83;21024;-72
2021/07/28 12:48:28;;;;;;;9.15;5.67;;;;;;;33.10;38.89;99262.37;1720992;83;21031;-74
2021/07/28 12:50:56;;;;;;;9.08;5.83;;;;;;;32.88;39.16;99259.99;1727464;83;21060;-72
2021/07/28 12:53:24;;;;;;;7.20;4.45;;;;;;;32.61;39.83;99255.10;1721017;83;21091;-75
2021/07/28 12:55:52;;;;;;;8.63;5.12;;;;;;;32.47;41.21;99260.97;1705898;83;21015;-75
2021/07/28 12:58:19;;;;;;;7.05;4.72;;;;;;;32.42;39.93;99250.19;1705619;83;21562;-75
2021/07/28 13:00:45;;;;;;;7.70;4.87;;;;;;;32.36;40.64;99246.28;1681960;84;20991;-74
2021/07/28 13:03:15;;;;;;;7.10;5.12;;;;;;;32.41;41.29;99243.78;1708831;84;21618;-76
2021/07/28 13:05:42;;;;;;;7.90;4.72;;;;;;;32.56;40.49;99242.27;1712172;82;21578;-75
2021/07/28 13:08:10;;;;;;;7.37;4.80;;;;;;;32.73;40.47;99244.62;1740765;82;21394;-75
2021/07/28 13:10:41;;;;;;;6.10;4.22;;;;;;;32.81;39.37;99245.24;1740931;82;21004;-75
2021/07/28 13:13:08;;;;;;;8.63;5.10;;;;;;;32.77;38.58;99252.36;1715608;82;21031;-75
2021/07/28 13:15:40;;;;;;;6.67;4.15;;;;;;;32.68;39.34;99245.72;1741228;82;21573;-76
2021/07/28 13:18:07;;;;;;;5.55;4.15;;;;;;;32.53;39.07;99240.32;1738482;82;21062;-75
2021/07/28 13:20:33;;;;;;;6.70;4.65;;;;;;;32.54;38.51;99233.47;1740618;82;21008;-75
2021/07/28 13:23:00;;;;;;;7.78;4.80;;;;;;;32.59;38.38;99225.78;1740611;82;21094;-75
2021/07/28 13:25:27;;;;;;;6.78;4.85;;;;;;;32.54;38.92;99236.89;1731448;82;21098;-74
2021/07/28 13:27:54;;;;;;;4.37;3.98;;;;;;;32.42;40.05;99234.70;1711082;84;21133;-73
2021/07/28 13:30:20;;;;;;;5.97;4.53;;;;;;;32.47;39.77;99228.58;1705544;82;21055;-72
2021/07/28 13:32:47;;;;;;;6.85;4.67;;;;;;;32.47;39.63;99227.97;1731504;82;21023;-72
2021/07/28 13:35:13;;;;;;;6.62;4.67;;;;;;;32.34;40.07;99224.81;1727553;82;21385;-71
2021/07/28 13:37:40;;;;;;;7.22;5.15;;;;;;;32.24;40.45;99223.75;1727456;82;21043;-72
2021/07/28 13:40:11;;;;;;;8.83;5.60;;;;;;;32.00;41.35;99221.53;1735603;82;21037;-73
2021/07/28 13:42:42;;;;;;;8.05;5.15;;;;;;;31.71;41.80;99227.44;1739057;82;21031;-73
2021/07/28 13:45:11;;;;;;;8.40;4.97;;;;;;;31.48;42.25;99214.72;1740320;82;21051;-72
2021/07/28 13:47:40;;;;;;;8.40;5.20;;;;;;;31.33;43.00;99215.53;1740738;82;21093;-72
2021/07/28 13:50:08;;;;;;;10.40;5.45;;;;;;;31.21;42.61;99212.51;1741057;82;21051;-71